createdAt,value
2022-10-14T00:05:22.744Z,101042.56
2022-10-14T00:20:24.636Z,101038.00
2022-10-14T00:35:26.510Z,101027.94
2022-10-14T00:50:28.379Z,101034.56
2022-10-14T01:05:36.685Z,101027.22
2022-10-14T01:20:38.520Z,101031.09
2022-10-14T01:35:49.475Z,101030.69
2022-10-14T01:50:56.237Z,101034.97
2022-10-14T02:06:04.394Z,101031.03
2022-10-14T02:21:13.111Z,101026.41
2022-10-14T02:36:18.481Z,101033.75
2022-10-14T02:51:20.295Z,101024.81
2022-10-14T03:06:22.307Z,101036.44
2022-10-14T03:21:24.289Z,101031.00
2022-10-14T03:36:26.098Z,101029.41
2022-10-14T03:51:27.928Z,101030.19
2022-10-14T04:06:31.259Z,101035.63
2022-10-14T04:21:33.146Z,101037.91
2022-10-14T04:36:34.902Z,101039.00
2022-10-14T04:51:36.685Z,101044.72
2022-10-14T05:06:38.599Z,101043.81
2022-10-14T05:21:40.529Z,101055.25
2022-10-14T05:36:42.417Z,101063.50
2022-10-14T05:51:44.240Z,101064.69
2022-10-14T06:06:46.346Z,101067.50
2022-10-14T06:21:48.560Z,101077.06
2022-10-14T06:36:53.387Z,101083.22
2022-10-14T06:51:55.164Z,101071.53
2022-10-14T07:06:58.633Z,101076.13
2022-10-14T07:22:00.739Z,101079.94
2022-10-14T07:37:02.586Z,101084.88
2022-10-14T07:52:04.688Z,101075.94
2022-10-14T08:07:06.669Z,101072.75
2022-10-14T08:22:09.841Z,101077.13
2022-10-14T08:37:14.381Z,101062.28
2022-10-14T08:52:18.659Z,101066.66
2022-10-14T09:07:21.399Z,101061.97
2022-10-14T09:22:25.013Z,101055.84
2022-10-14T09:37:37.732Z,101058.47
2022-10-14T09:52:40.193Z,101060.81
2022-10-14T10:07:42.009Z,101050.06
2022-10-14T10:22:44.178Z,101052.78
2022-10-14T10:38:21.230Z,101036.84
2022-10-14T10:53:32.779Z,101037.00
2022-10-14T11:09:10.642Z,101028.25
2022-10-14T11:24:54.852Z,101037.03
2022-10-14T11:40:25.643Z,101032.53
2022-10-14T11:55:34.650Z,101030.56
2022-10-14T12:10:45.803Z,101017.00
2022-10-14T12:26:06.898Z,101013.63
2022-10-14T12:41:38.395Z,101012.13
2022-10-14T12:56:53.292Z,101013.91
2022-10-14T13:11:55.510Z,101000.22
2022-10-14T13:27:22.962Z,101006.69
2022-10-14T13:42:34.920Z,100996.50
2022-10-14T13:58:07.401Z,101005.25
2022-10-14T14:13:03.787Z,101012.22
2022-10-14T14:28:08.515Z,101014.53
2022-10-14T14:43:10.588Z,101011.06
2022-10-14T14:58:38.663Z,101005.50
2022-10-14T15:13:40.393Z,101016.91
2022-10-14T15:28:42.358Z,101020.69
2022-10-14T15:43:44.194Z,101024.22
2022-10-14T15:58:46.025Z,101026.75
2022-10-14T16:13:48.397Z,101031.47
2022-10-14T16:28:50.343Z,101028.28
2022-10-14T16:43:52.145Z,101044.41
2022-10-14T16:58:53.960Z,101044.94
2022-10-14T17:13:57.564Z,101042.28
2022-10-14T17:28:59.680Z,101040.59
2022-10-14T17:44:01.674Z,101047.47
2022-10-14T17:59:10.677Z,101042.16
2022-10-14T18:14:13.767Z,101049.78
2022-10-14T18:29:15.870Z,101050.84
2022-10-14T18:44:17.815Z,101056.16
2022-10-14T18:59:21.801Z,101058.41
2022-10-14T19:14:23.694Z,101065.81
2022-10-14T19:29:25.596Z,101071.78
2022-10-14T19:44:27.521Z,101072.63
2022-10-14T19:59:29.380Z,101076.75
2022-10-14T20:14:31.177Z,101075.69
2022-10-14T20:29:36.039Z,101083.94
2022-10-14T20:59:41.693Z,101081.59
2022-10-14T21:14:43.572Z,101091.63
2022-10-14T21:29:45.527Z,101101.31
2022-10-14T21:44:47.370Z,101106.09
2022-10-14T21:59:49.150Z,101105.94
2022-10-14T22:14:50.953Z,101111.72
2022-10-14T22:29:52.875Z,101100.97
2022-10-14T22:44:54.654Z,101103.84
2022-10-14T22:59:56.474Z,101108.56
2022-10-14T23:14:58.393Z,101114.16
2022-10-14T23:30:00.282Z,101109.56
2022-10-14T23:45:02.104Z,101123.59
